Reefer Bay — V2CY — position and weather

sailwx.info

Track history (hours):
 
Tides and Currents Weather Stations Pressure Air Temp Water Temp Dewpoint Dewpoint Depression Visibility Wind Speed Wind Dir Waves Ship Positions

Reefer Bay

Last reported at 2017-Oct-19 22:36 UTC. Time now 2017-Nov-22 11:06 UTC.
Position N 04°09' W 003°39'.
Warning: this ship's position is 33 days out of date.

Length 220 m; draft 11.5 m.

Type: Ship. MMSI: 304504000.

Date/timePositionNaut miles runAvg speedWind from/ knotsBaromVisibWave heightAir tempDewpointWater temp
2017-Oct-19 22:36N 04°09' W 003°39'215.1
2017-Oct-19 22:29N 04°09' W 003°41'715.4
2017-Oct-19 22:00N 04°08' W 003°48'712.7
2017-Oct-19 21:29N 04°08' W 003°55'714.6
2017-Oct-19 21:01N 04°08' W 004°01'  
2017-Oct-14 08:34N 26°59' W 014°26'113.9
2017-Oct-14 08:30N 27°00' W 014°25'713.9
2017-Oct-14 08:00N 27°06' W 014°21'714.0
2017-Oct-14 07:30N 27°12' W 014°17'714.0
2017-Oct-14 07:00N 27°18' W 014°13'714.0
2017-Oct-14 06:30N 27°24' W 014°09'714.1
2017-Oct-14 06:00N 27°30' W 014°04'714.0
2017-Oct-14 05:31N 27°36' W 014°00'714.2
2017-Oct-14 05:00N 27°42' W 013°56'714.9
2017-Oct-14 04:31N 27°48' W 013°52'917.5
2017-Oct-14 04:00N 27°55' W 013°47'1117.5
2017-Oct-14 03:23N 28°05' W 013°41'717.3
2017-Oct-14 03:00N 28°11' W 013°38'917.4
2017-Oct-14 02:28N 28°19' W 013°34'817.7
2017-Oct-14 02:00N 28°27' W 013°30'1017.6
2017-Oct-14 01:28N 28°36' W 013°25'817.6
2017-Oct-14 00:59N 28°43' W 013°21'917.7
2017-Oct-14 00:30N 28°51' W 013°17'917.2
2017-Oct-14 00:00N 28°59' W 013°13'917.1
2017-Oct-13 23:30N 29°07' W 013°09'27615.6
2017-Oct-13 05:50N 32°52' W 010°03'513.9
2017-Oct-13 05:28N 32°56' W 009°60'914.2
2017-Oct-13 04:50N 33°04' W 009°54'514.3
2017-Oct-13 04:30N 33°08' W 009°51'814.3
2017-Oct-13 03:59N 33°14' W 009°45'814.5
2017-Oct-13 03:27N 33°20' W 009°40'814.6
2017-Oct-13 02:52N 33°25' W 009°32'614.6
2017-Oct-13 02:29N 33°29' W 009°27'814.5
2017-Oct-13 01:55N 33°34' W 009°19'614.8
2017-Oct-13 01:29N 33°38' W 009°14'814.5
2017-Oct-13 00:57N 33°43' W 009°06'814.4
2017-Oct-13 00:24N 33°49' W 008°59'714.6
2017-Oct-12 23:54N 33°53' W 008°52'614.5
2017-Oct-12 23:27N 33°57' W 008°46'814.7
2017-Oct-12 22:53N 34°02' W 008°39'614.3
2017-Oct-12 22:30N 34°06' W 008°33'714.5
2017-Oct-12 22:00N 34°11' W 008°27'714.4
2017-Oct-12 21:30N 34°15' W 008°20'1014.5
2017-Oct-12 20:50N 34°22' W 008°11'614.8
2017-Oct-12 20:27N 34°25' W 008°06'614.1
2017-Oct-12 20:00N 34°29' W 007°60'814.3
2017-Oct-12 19:26N 34°34' W 007°52'614.1
2017-Oct-12 19:00N 34°38' W 007°47'1014.6
2017-Oct-12 18:21N 34°44' W 007°38'514.4
2017-Oct-12 18:00N 34°47' W 007°33'714.6
2017-Oct-12 17:30N 34°52' W 007°26'815.0
2017-Oct-12 16:57N 34°57' W 007°18'714.9
2017-Oct-12 16:30N 35°02' W 007°12'814.9
2017-Oct-12 16:00N 35°06' W 007°05'815.2
2017-Oct-12 15:30N 35°11' W 006°58'815.5
2017-Oct-12 15:00N 35°16' W 006°51'815.9
2017-Oct-12 14:30N 35°21' W 006°43'815.8
2017-Oct-12 14:00N 35°27' W 006°36'714.6
2017-Oct-12 13:30N 35°31' W 006°29'815.2
2017-Oct-12 13:00N 35°36' W 006°22'917.7
2017-Oct-12 12:29N 35°42' W 006°13'1016.3
2017-Oct-12 11:52N 35°49' W 006°04'2615.9
2017-Oct-12 10:16N 35°57' W 005°34'312.5
2017-Oct-12 10:00N 35°57' W 005°30'3 0.2
2017-Oct-11 19:57N 35°54' W 005°30'4 2.3
2017-Oct-11 18:26N 35°57' W 005°32'716.8
2017-Oct-11 18:01N 36°01' W 005°25'814.9
2017-Oct-11 17:30N 36°08' W 005°24'1 0.1
2017-Oct-10 20:33N 36°09' W 005°23'0 0.1
2017-Oct-10 20:24N 36°09' W 005°23'0 0.2
2017-Oct-10 19:58N 36°10' W 005°23'2 4.4
2017-Oct-10 19:31N 36°08' W 005°25'1 0.1
2017-Oct-10 11:04N 36°08' W 005°25'0 0.0
2017-Oct-10 10:58N 36°08' W 005°25'0 0.0
2017-Oct-10 10:28N 36°08' W 005°25'0 0.0
2017-Oct-10 09:52N 36°08' W 005°25'0 0.0
2017-Oct-10 09:28N 36°08' W 005°25'  
Track history (hours):
 
Tides and Currents Weather Stations Pressure Air Temp Water Temp Dewpoint Dewpoint Depression Visibility Wind Speed Wind Dir Waves Ship Positions

Reefer Bay

Last reported at 2017-Oct-19 22:36 UTC. Time now 2017-Nov-22 11:06 UTC.
Position N 04°09' W 003°39'.
Warning: this ship's position is 33 days out of date.

Length 220 m; draft 11.5 m.

Type: Ship. MMSI: 304504000.

Date/timePositionNaut miles runAvg speedWind from/ knotsBaromVisibWave heightAir tempDewpointWater temp
2017-Oct-19 22:36N 04°09' W 003°39'215.1
2017-Oct-19 22:29N 04°09' W 003°41'715.4
2017-Oct-19 22:00N 04°08' W 003°48'712.7
2017-Oct-19 21:29N 04°08' W 003°55'714.6
2017-Oct-19 21:01N 04°08' W 004°01'  
2017-Oct-14 08:34N 26°59' W 014°26'113.9
2017-Oct-14 08:30N 27°00' W 014°25'713.9
2017-Oct-14 08:00N 27°06' W 014°21'714.0
2017-Oct-14 07:30N 27°12' W 014°17'714.0
2017-Oct-14 07:00N 27°18' W 014°13'714.0
2017-Oct-14 06:30N 27°24' W 014°09'714.1
2017-Oct-14 06:00N 27°30' W 014°04'714.0
2017-Oct-14 05:31N 27°36' W 014°00'714.2
2017-Oct-14 05:00N 27°42' W 013°56'714.9
2017-Oct-14 04:31N 27°48' W 013°52'917.5
2017-Oct-14 04:00N 27°55' W 013°47'1117.5
2017-Oct-14 03:23N 28°05' W 013°41'717.3
2017-Oct-14 03:00N 28°11' W 013°38'917.4
2017-Oct-14 02:28N 28°19' W 013°34'817.7
2017-Oct-14 02:00N 28°27' W 013°30'1017.6
2017-Oct-14 01:28N 28°36' W 013°25'817.6
2017-Oct-14 00:59N 28°43' W 013°21'917.7
2017-Oct-14 00:30N 28°51' W 013°17'917.2
2017-Oct-14 00:00N 28°59' W 013°13'917.1
2017-Oct-13 23:30N 29°07' W 013°09'27615.6
2017-Oct-13 05:50N 32°52' W 010°03'513.9
2017-Oct-13 05:28N 32°56' W 009°60'914.2
2017-Oct-13 04:50N 33°04' W 009°54'514.3
2017-Oct-13 04:30N 33°08' W 009°51'814.3
2017-Oct-13 03:59N 33°14' W 009°45'814.5
2017-Oct-13 03:27N 33°20' W 009°40'814.6
2017-Oct-13 02:52N 33°25' W 009°32'614.6
2017-Oct-13 02:29N 33°29' W 009°27'814.5
2017-Oct-13 01:55N 33°34' W 009°19'614.8
2017-Oct-13 01:29N 33°38' W 009°14'814.5
2017-Oct-13 00:57N 33°43' W 009°06'814.4
2017-Oct-13 00:24N 33°49' W 008°59'714.6
2017-Oct-12 23:54N 33°53' W 008°52'614.5
2017-Oct-12 23:27N 33°57' W 008°46'814.7
2017-Oct-12 22:53N 34°02' W 008°39'614.3
2017-Oct-12 22:30N 34°06' W 008°33'714.5
2017-Oct-12 22:00N 34°11' W 008°27'714.4
2017-Oct-12 21:30N 34°15' W 008°20'1014.5
2017-Oct-12 20:50N 34°22' W 008°11'614.8
2017-Oct-12 20:27N 34°25' W 008°06'614.1
2017-Oct-12 20:00N 34°29' W 007°60'814.3
2017-Oct-12 19:26N 34°34' W 007°52'614.1
2017-Oct-12 19:00N 34°38' W 007°47'1014.6
2017-Oct-12 18:21N 34°44' W 007°38'514.4
2017-Oct-12 18:00N 34°47' W 007°33'714.6
2017-Oct-12 17:30N 34°52' W 007°26'815.0
2017-Oct-12 16:57N 34°57' W 007°18'714.9
2017-Oct-12 16:30N 35°02' W 007°12'814.9
2017-Oct-12 16:00N 35°06' W 007°05'815.2
2017-Oct-12 15:30N 35°11' W 006°58'815.5
2017-Oct-12 15:00N 35°16' W 006°51'815.9
2017-Oct-12 14:30N 35°21' W 006°43'815.8
2017-Oct-12 14:00N 35°27' W 006°36'714.6
2017-Oct-12 13:30N 35°31' W 006°29'815.2
2017-Oct-12 13:00N 35°36' W 006°22'917.7
2017-Oct-12 12:29N 35°42' W 006°13'1016.3
2017-Oct-12 11:52N 35°49' W 006°04'2615.9
2017-Oct-12 10:16N 35°57' W 005°34'312.5
2017-Oct-12 10:00N 35°57' W 005°30'3 0.2
2017-Oct-11 19:57N 35°54' W 005°30'4 2.3
2017-Oct-11 18:26N 35°57' W 005°32'716.8
2017-Oct-11 18:01N 36°01' W 005°25'814.9
2017-Oct-11 17:30N 36°08' W 005°24'1 0.1
2017-Oct-10 20:33N 36°09' W 005°23'0 0.1
2017-Oct-10 20:24N 36°09' W 005°23'0 0.2
2017-Oct-10 19:58N 36°10' W 005°23'2 4.4
2017-Oct-10 19:31N 36°08' W 005°25'1 0.1
2017-Oct-10 11:04N 36°08' W 005°25'0 0.0
2017-Oct-10 10:58N 36°08' W 005°25'0 0.0
2017-Oct-10 10:28N 36°08' W 005°25'0 0.0
2017-Oct-10 09:52N 36°08' W 005°25'0 0.0
2017-Oct-10 09:28N 36°08' W 005°25'  

Dump ship's entire track history